createdAt,value
2023-01-20T00:00:00.845Z,15.10
2023-01-20T00:02:46.307Z,15.48
2023-01-20T00:05:31.991Z,15.15
2023-01-20T00:08:17.658Z,15.87
2023-01-20T00:11:07.966Z,16.02
2023-01-20T00:13:55.748Z,15.40
2023-01-20T00:16:41.228Z,15.15
2023-01-20T00:19:27.583Z,14.63
2023-01-20T00:22:12.883Z,14.55
2023-01-20T00:24:58.572Z,14.77
2023-01-20T00:27:44.173Z,15.35
2023-01-20T00:30:30.007Z,16.25
2023-01-20T00:33:15.428Z,16.57
2023-01-20T00:36:01.082Z,14.38
2023-01-20T00:38:47.015Z,15.13
2023-01-20T00:41:32.590Z,14.00
2023-01-20T00:44:18.106Z,13.75
2023-01-20T00:47:20.914Z,16.00
2023-01-20T00:50:06.677Z,15.05
2023-01-20T00:52:52.378Z,15.25
2023-01-20T00:55:38.228Z,15.18
2023-01-20T00:58:24.015Z,17.40
2023-01-20T01:01:10.029Z,16.50
2023-01-20T01:03:55.735Z,17.13
2023-01-20T01:06:41.374Z,17.08
2023-01-20T01:09:26.666Z,15.80
2023-01-20T01:12:12.231Z,17.48
2023-01-20T01:14:57.650Z,16.42
2023-01-20T01:17:46.575Z,15.43
2023-01-20T01:20:32.005Z,15.02
2023-01-20T01:23:17.333Z,15.18
2023-01-20T01:26:02.736Z,16.70
2023-01-20T01:28:49.871Z,15.82
2023-01-20T01:31:35.684Z,14.63
2023-01-20T01:34:21.392Z,15.07
2023-01-20T01:37:06.965Z,14.52
2023-01-20T01:39:52.503Z,15.82
2023-01-20T01:42:38.153Z,15.10
2023-01-20T01:45:29.692Z,14.80
2023-01-20T01:48:16.148Z,17.38
2023-01-20T01:51:07.451Z,16.37
2023-01-20T01:54:05.765Z,15.13
2023-01-20T01:56:51.769Z,15.60
2023-01-20T01:59:37.861Z,15.50
2023-01-20T02:02:24.189Z,16.45
2023-01-20T02:05:11.909Z,16.10
2023-01-20T02:07:58.324Z,19.00
2023-01-20T02:10:43.708Z,18.65
2023-01-20T02:13:29.435Z,16.98
2023-01-20T02:16:21.310Z,15.77
2023-01-20T02:19:15.760Z,16.65
2023-01-20T02:22:16.143Z,15.85
2023-01-20T02:25:22.954Z,14.77
2023-01-20T02:28:42.519Z,15.05
2023-01-20T02:31:51.848Z,14.77
2023-01-20T02:34:58.771Z,14.93
2023-01-20T02:37:55.317Z,16.17
2023-01-20T02:40:53.467Z,14.18
2023-01-20T02:44:03.761Z,11.77
2023-01-20T02:47:09.573Z,9.65
2023-01-20T02:50:01.117Z,9.85
2023-01-20T02:52:51.738Z,8.70
2023-01-20T02:55:53.178Z,9.30
2023-01-20T02:58:48.532Z,8.90
2023-01-20T03:01:49.088Z,8.70
2023-01-20T03:04:41.458Z,7.55
2023-01-20T03:07:30.128Z,9.10
2023-01-20T03:10:20.375Z,8.35
2023-01-20T03:13:13.703Z,8.82
2023-01-20T03:16:04.399Z,9.10
2023-01-20T03:18:51.382Z,8.68
2023-01-20T03:21:37.076Z,9.67
2023-01-20T03:24:23.913Z,9.15
2023-01-20T03:27:11.179Z,8.90
2023-01-20T03:29:56.580Z,8.75
2023-01-20T03:32:46.207Z,8.80
2023-01-20T03:35:32.268Z,9.40
2023-01-20T03:38:17.793Z,8.52
2023-01-20T03:41:25.979Z,8.25
2023-01-20T03:44:27.724Z,8.67
2023-01-20T03:47:34.911Z,8.02
2023-01-20T03:50:59.808Z,8.38
2023-01-20T03:53:54.090Z,8.97
2023-01-20T03:56:51.211Z,7.82
2023-01-20T03:59:40.343Z,8.17
2023-01-20T04:02:28.156Z,8.20
2023-01-20T04:05:14.818Z,8.13
2023-01-20T04:08:03.474Z,8.43
2023-01-20T04:10:51.144Z,8.80
2023-01-20T04:13:36.819Z,8.48
2023-01-20T04:16:24.683Z,9.10
2023-01-20T04:19:10.508Z,8.90
2023-01-20T04:22:10.169Z,8.25
2023-01-20T04:25:01.221Z,9.00
2023-01-20T04:27:46.801Z,8.27
2023-01-20T04:30:32.639Z,8.03
2023-01-20T04:33:18.321Z,8.10
2023-01-20T04:36:04.288Z,8.23
2023-01-20T04:38:49.656Z,9.00
2023-01-20T04:41:35.106Z,8.75
2023-01-20T04:44:20.429Z,8.32
2023-01-20T04:47:06.179Z,8.85
2023-01-20T04:49:51.606Z,8.88
2023-01-20T04:52:37.249Z,8.10
2023-01-20T04:55:22.872Z,8.48
2023-01-20T04:58:10.222Z,9.23
2023-01-20T05:00:55.399Z,8.90
2023-01-20T05:03:41.112Z,8.63
2023-01-20T05:06:26.999Z,7.70
2023-01-20T05:09:16.386Z,8.23
2023-01-20T05:12:02.355Z,8.07
2023-01-20T05:14:47.988Z,8.68
2023-01-20T05:17:33.512Z,8.32
2023-01-20T05:20:20.714Z,8.55
2023-01-20T05:23:06.977Z,9.40
2023-01-20T05:25:53.198Z,8.90
2023-01-20T05:28:38.678Z,8.65
2023-01-20T05:31:24.085Z,8.60
2023-01-20T05:34:10.914Z,8.45
2023-01-20T05:36:56.338Z,8.45
2023-01-20T05:39:41.894Z,8.38
2023-01-20T05:42:27.518Z,9.23
2023-01-20T05:45:13.135Z,8.48
2023-01-20T05:47:59.648Z,9.48
2023-01-20T05:50:45.404Z,8.87
2023-01-20T05:53:30.605Z,8.60
2023-01-20T05:56:16.388Z,8.57
2023-01-20T05:59:01.973Z,9.23
2023-01-20T06:01:47.593Z,9.02
2023-01-20T06:04:33.422Z,7.93
2023-01-20T06:07:19.038Z,8.00
2023-01-20T06:10:05.078Z,8.43
2023-01-20T06:12:54.880Z,8.35
2023-01-20T06:15:40.226Z,8.18
2023-01-20T06:18:25.546Z,7.82
2023-01-20T06:21:11.553Z,8.13
2023-01-20T06:23:57.030Z,7.45
2023-01-20T06:26:42.606Z,8.23
2023-01-20T06:29:28.222Z,7.47
2023-01-20T06:32:13.815Z,8.27
2023-01-20T06:34:59.191Z,8.00
2023-01-20T06:37:44.524Z,8.45
2023-01-20T06:40:31.027Z,7.22
2023-01-20T06:43:16.970Z,7.47
2023-01-20T06:46:04.944Z,8.43
2023-01-20T06:48:50.308Z,7.53
2023-01-20T06:51:35.923Z,7.97
2023-01-20T06:54:21.575Z,7.07
2023-01-20T06:57:06.920Z,7.70
2023-01-20T06:59:52.449Z,7.57
2023-01-20T07:02:37.827Z,8.60
2023-01-20T07:05:23.283Z,8.25
2023-01-20T07:08:08.976Z,8.18
2023-01-20T07:10:54.467Z,8.40
2023-01-20T07:13:39.983Z,7.10
2023-01-20T07:16:25.376Z,7.97
2023-01-20T07:19:12.004Z,7.95
2023-01-20T07:21:57.824Z,7.73
2023-01-20T07:24:42.956Z,8.43
2023-01-20T07:27:28.552Z,8.70
2023-01-20T07:30:14.204Z,7.18
2023-01-20T07:32:59.400Z,8.33
2023-01-20T07:35:44.774Z,8.25
2023-01-20T07:38:30.782Z,7.35
2023-01-20T07:41:18.086Z,7.53
2023-01-20T07:44:03.404Z,7.88
2023-01-20T07:46:51.542Z,6.90
2023-01-20T07:49:37.035Z,8.18
2023-01-20T07:52:22.768Z,8.32
2023-01-20T07:55:07.998Z,7.68
2023-01-20T07:57:53.545Z,8.40
2023-01-20T08:00:39.277Z,7.95
2023-01-20T08:03:27.361Z,8.35
2023-01-20T08:06:15.480Z,7.35
2023-01-20T08:09:02.009Z,7.05
2023-01-20T08:11:47.295Z,7.32
2023-01-20T08:14:32.598Z,7.03
2023-01-20T08:17:17.891Z,7.18
2023-01-20T08:20:03.539Z,7.15
2023-01-20T08:22:48.995Z,7.07
2023-01-20T08:25:34.370Z,7.57
2023-01-20T08:28:19.936Z,7.30
2023-01-20T08:31:08.419Z,6.70
2023-01-20T08:33:55.631Z,7.63
2023-01-20T08:36:41.502Z,8.65
2023-01-20T08:39:27.205Z,8.02
2023-01-20T08:42:13.004Z,6.53
2023-01-20T08:44:58.218Z,6.70
2023-01-20T08:47:45.821Z,7.47
2023-01-20T08:50:31.211Z,6.90
2023-01-20T08:53:16.712Z,6.87
2023-01-20T08:56:03.141Z,6.85
2023-01-20T08:58:48.755Z,6.28
2023-01-20T09:01:36.181Z,6.60
2023-01-20T09:04:21.732Z,6.47
2023-01-20T09:07:08.149Z,5.93
2023-01-20T09:09:53.385Z,5.65
2023-01-20T09:12:39.425Z,5.63
2023-01-20T09:15:25.713Z,5.88
2023-01-20T09:18:11.427Z,6.13
2023-01-20T09:20:58.752Z,6.38
2023-01-20T09:23:46.944Z,6.75
2023-01-20T09:26:38.470Z,6.13
2023-01-20T09:29:24.615Z,5.68
2023-01-20T09:32:12.819Z,6.35
2023-01-20T09:34:58.184Z,6.28
2023-01-20T09:38:01.896Z,5.38
2023-01-20T09:41:22.999Z,5.70
2023-01-20T09:44:36.633Z,5.78
2023-01-20T09:47:30.991Z,5.13
2023-01-20T09:50:37.429Z,4.38
2023-01-20T09:53:41.510Z,4.13
2023-01-20T09:56:29.261Z,4.45
2023-01-20T09:59:30.731Z,4.28
2023-01-20T10:02:25.616Z,3.70
2023-01-20T10:05:13.812Z,4.18
2023-01-20T10:08:08.287Z,4.53
2023-01-20T10:11:01.200Z,4.50
2023-01-20T10:13:56.302Z,3.72
2023-01-20T10:16:50.267Z,3.83
2023-01-20T10:19:47.776Z,3.85
2023-01-20T10:22:53.310Z,3.80
2023-01-20T10:25:45.267Z,4.23
2023-01-20T10:28:36.610Z,3.88
2023-01-20T10:31:27.637Z,3.42
2023-01-20T10:34:18.814Z,3.97
2023-01-20T10:37:10.160Z,3.50
2023-01-20T10:40:13.936Z,3.72
2023-01-20T10:43:04.295Z,3.50
2023-01-20T10:46:03.970Z,3.60
2023-01-20T10:49:27.073Z,3.55
2023-01-20T10:52:19.612Z,3.55
2023-01-20T10:55:18.183Z,3.45
2023-01-20T10:58:20.787Z,3.67
2023-01-20T11:01:10.353Z,3.92
2023-01-20T11:03:55.769Z,3.70
2023-01-20T11:06:41.597Z,3.40
2023-01-20T11:09:35.084Z,3.17
2023-01-20T11:12:27.499Z,3.95
2023-01-20T11:15:33.823Z,3.50
2023-01-20T11:18:22.392Z,3.17
2023-01-20T11:21:12.516Z,3.70
2023-01-20T11:23:58.814Z,3.83
2023-01-20T11:26:44.316Z,3.47
2023-01-20T11:29:32.405Z,3.58
2023-01-20T11:32:35.958Z,3.70
2023-01-20T11:35:25.160Z,3.40
2023-01-20T11:38:28.773Z,3.20
2023-01-20T11:41:23.040Z,3.17
2023-01-20T11:44:08.557Z,3.45
2023-01-20T11:46:55.012Z,3.20
2023-01-20T11:49:40.720Z,2.83
2023-01-20T11:52:26.157Z,3.10
2023-01-20T11:55:17.798Z,3.45
2023-01-20T11:58:04.007Z,3.50
2023-01-20T12:00:52.191Z,3.42
2023-01-20T12:03:41.182Z,3.30
2023-01-20T12:06:30.833Z,3.30
2023-01-20T12:09:19.774Z,2.95
2023-01-20T12:12:15.170Z,3.65
2023-01-20T12:15:19.447Z,3.33
2023-01-20T12:18:18.958Z,3.05
2023-01-20T12:21:10.717Z,3.08
2023-01-20T12:24:07.612Z,2.95
2023-01-20T12:26:53.757Z,3.08
2023-01-20T12:29:45.628Z,2.92
2023-01-20T12:32:33.122Z,3.50
2023-01-20T12:35:20.957Z,2.40
2023-01-20T12:38:08.311Z,3.10
2023-01-20T12:40:55.195Z,3.15
2023-01-20T12:43:56.444Z,3.03
2023-01-20T12:47:33.151Z,2.88
2023-01-20T12:50:44.865Z,2.92
2023-01-20T12:53:43.508Z,2.97
2023-01-20T12:57:02.926Z,3.45
2023-01-20T13:00:05.328Z,2.80
2023-01-20T13:03:30.164Z,2.93
2023-01-20T13:06:42.411Z,3.23
2023-01-20T13:09:52.549Z,3.38
2023-01-20T13:12:56.852Z,2.70
2023-01-20T13:15:48.391Z,3.28
2023-01-20T13:18:47.631Z,3.10
2023-01-20T13:21:34.186Z,2.80
2023-01-20T13:24:29.061Z,3.10
2023-01-20T13:27:23.685Z,3.38
2023-01-20T13:30:44.239Z,2.40
2023-01-20T13:33:33.228Z,3.25
2023-01-20T13:36:23.612Z,3.35
2023-01-20T13:39:40.546Z,3.25
2023-01-20T13:42:31.595Z,3.10
2023-01-20T13:45:19.732Z,3.78
2023-01-20T13:48:10.951Z,3.15
2023-01-20T13:51:16.797Z,3.80
2023-01-20T13:54:32.628Z,3.22
2023-01-20T13:57:26.036Z,3.63
2023-01-20T14:00:12.962Z,3.53
2023-01-20T14:02:58.333Z,4.05
2023-01-20T14:05:48.979Z,3.47
2023-01-20T14:08:39.524Z,3.45
2023-01-20T14:11:26.862Z,3.85
2023-01-20T14:14:18.817Z,4.22
2023-01-20T14:17:15.385Z,3.67
2023-01-20T14:20:00.716Z,3.88
2023-01-20T14:22:46.366Z,3.63
2023-01-20T14:25:31.989Z,3.73
2023-01-20T14:28:19.666Z,3.45
2023-01-20T14:31:19.514Z,4.10
2023-01-20T14:34:32.117Z,3.43
2023-01-20T14:37:24.823Z,3.30
2023-01-20T14:40:16.279Z,3.42
2023-01-20T14:43:12.110Z,3.58
2023-01-20T14:45:57.541Z,3.63
2023-01-20T14:48:44.514Z,3.38
2023-01-20T14:51:30.174Z,3.50
2023-01-20T14:54:49.720Z,3.33
2023-01-20T14:57:43.424Z,2.90
2023-01-20T15:00:31.529Z,3.90
2023-01-20T15:03:25.579Z,3.30
2023-01-20T15:06:10.909Z,3.05
2023-01-20T15:09:06.518Z,3.57
2023-01-20T15:12:45.195Z,3.63
2023-01-20T15:15:32.323Z,3.72
2023-01-20T15:18:22.307Z,3.60
2023-01-20T15:21:27.065Z,3.40
2023-01-20T15:24:13.608Z,3.72
2023-01-20T15:27:01.203Z,3.20
2023-01-20T15:29:59.826Z,2.90
2023-01-20T15:32:47.238Z,3.55
2023-01-20T15:35:33.040Z,3.40
2023-01-20T15:38:18.371Z,4.10
2023-01-20T15:41:04.068Z,3.45
2023-01-20T15:43:51.263Z,3.50
2023-01-20T15:46:38.444Z,3.60
2023-01-20T15:49:25.033Z,3.72
2023-01-20T15:52:10.757Z,3.30
2023-01-20T15:54:56.336Z,3.65
2023-01-20T15:57:42.624Z,3.30
2023-01-20T16:00:30.691Z,3.67
2023-01-20T16:03:16.501Z,4.20
2023-01-20T16:06:02.049Z,4.55
2023-01-20T16:08:49.733Z,3.77
2023-01-20T16:11:35.124Z,3.70
2023-01-20T16:14:20.695Z,3.63
2023-01-20T16:17:18.322Z,4.07
2023-01-20T16:20:03.869Z,4.47
2023-01-20T16:22:49.623Z,3.38
2023-01-20T16:25:35.321Z,4.35
2023-01-20T16:28:23.499Z,4.03
2023-01-20T16:31:11.493Z,4.22
2023-01-20T16:33:56.882Z,3.67
2023-01-20T16:36:42.095Z,4.43
2023-01-20T16:39:27.892Z,4.13
2023-01-20T16:42:14.606Z,4.77
2023-01-20T16:45:00.260Z,4.80
2023-01-20T16:47:45.667Z,4.50
2023-01-20T16:50:31.282Z,5.45
2023-01-20T16:53:18.514Z,3.97
2023-01-20T16:56:05.194Z,4.70
2023-01-20T16:58:52.609Z,4.28
2023-01-20T17:01:38.043Z,3.80
2023-01-20T17:04:23.831Z,4.20
2023-01-20T17:07:09.116Z,3.50
2023-01-20T17:09:55.864Z,4.10
2023-01-20T17:12:41.471Z,3.97
2023-01-20T17:15:27.903Z,4.32
2023-01-20T17:18:13.451Z,4.17
2023-01-20T17:21:07.040Z,4.43
2023-01-20T17:23:57.284Z,4.38
2023-01-20T17:26:42.914Z,4.22
2023-01-20T17:29:28.185Z,4.00
2023-01-20T17:32:13.956Z,4.63
2023-01-20T17:34:59.313Z,4.35
2023-01-20T17:37:44.865Z,4.38
2023-01-20T17:40:30.201Z,4.18
2023-01-20T17:43:15.486Z,4.85
2023-01-20T17:46:01.906Z,5.45
2023-01-20T17:48:47.304Z,5.20
2023-01-20T17:51:33.069Z,5.32
2023-01-20T17:54:18.325Z,6.10
2023-01-20T17:57:03.620Z,6.95
2023-01-20T17:59:49.104Z,6.45
2023-01-20T18:02:34.874Z,5.65
2023-01-20T18:05:20.401Z,7.95
2023-01-20T18:08:05.706Z,7.73
2023-01-20T18:10:51.268Z,8.32
2023-01-20T18:13:37.252Z,8.32
2023-01-20T18:16:26.254Z,8.05
2023-01-20T18:19:13.918Z,8.87
2023-01-20T18:22:01.796Z,5.40
2023-01-20T18:24:47.259Z,6.00
2023-01-20T18:27:33.208Z,5.85
2023-01-20T18:30:18.851Z,5.35
2023-01-20T18:33:04.401Z,5.75
2023-01-20T18:35:50.120Z,7.82
2023-01-20T18:38:35.723Z,8.55
2023-01-20T18:41:21.643Z,8.43
2023-01-20T18:44:07.631Z,7.20
2023-01-20T18:46:53.176Z,7.20
2023-01-20T18:49:38.549Z,6.67
2023-01-20T18:52:24.074Z,7.07
2023-01-20T18:55:09.940Z,6.87
2023-01-20T18:57:55.240Z,6.93
2023-01-20T19:00:40.936Z,7.22
2023-01-20T19:03:26.300Z,8.90
2023-01-20T19:06:14.953Z,8.05
2023-01-20T19:09:01.149Z,7.80
2023-01-20T19:11:46.625Z,6.80
2023-01-20T19:14:32.068Z,8.55
2023-01-20T19:17:17.347Z,7.40
2023-01-20T19:20:04.193Z,7.45
2023-01-20T19:22:49.482Z,6.22
2023-01-20T19:25:34.950Z,6.43
2023-01-20T19:28:20.350Z,6.72
2023-01-20T19:31:08.243Z,6.13
2023-01-20T19:33:53.667Z,6.70
2023-01-20T19:36:39.292Z,6.80
2023-01-20T19:39:24.775Z,6.43
2023-01-20T19:42:10.154Z,6.75
2023-01-20T19:44:55.725Z,5.80
2023-01-20T19:47:41.583Z,6.35
2023-01-20T19:50:26.918Z,6.88
2023-01-20T19:53:12.549Z,6.40
2023-01-20T19:56:02.464Z,6.13
2023-01-20T19:58:48.347Z,5.85
2023-01-20T20:01:35.946Z,6.38
2023-01-20T20:04:23.887Z,5.70
2023-01-20T20:07:09.236Z,6.68
2023-01-20T20:09:54.625Z,5.55
2023-01-20T20:12:40.386Z,6.90
2023-01-20T20:15:25.756Z,6.10
2023-01-20T20:18:11.358Z,7.13
2023-01-20T20:20:57.479Z,7.85
2023-01-20T20:23:43.199Z,6.78
2023-01-20T20:26:31.611Z,6.10
2023-01-20T20:29:19.035Z,8.13
2023-01-20T20:32:04.684Z,7.35
2023-01-20T20:34:50.282Z,7.30
2023-01-20T20:37:35.609Z,6.88
2023-01-20T20:40:21.238Z,7.87
2023-01-20T20:43:06.727Z,8.63
2023-01-20T20:45:52.568Z,8.35
2023-01-20T20:48:37.948Z,8.05
2023-01-20T20:51:24.180Z,9.52
2023-01-20T20:54:11.752Z,9.35
2023-01-20T20:56:57.167Z,9.37
2023-01-20T20:59:58.211Z,9.50
2023-01-20T21:02:44.666Z,9.02
2023-01-20T21:05:30.120Z,9.95
2023-01-20T21:08:16.492Z,11.55
2023-01-20T21:11:03.946Z,11.10
2023-01-20T21:13:49.712Z,15.35
2023-01-20T21:16:35.676Z,17.90
2023-01-20T21:19:24.335Z,18.60
2023-01-20T21:22:09.929Z,16.95
2023-01-20T21:24:55.280Z,16.88
2023-01-20T21:27:41.046Z,16.90
2023-01-20T21:30:26.374Z,17.98
2023-01-20T21:33:17.506Z,17.95
2023-01-20T21:36:03.095Z,18.48
2023-01-20T21:38:48.507Z,17.13
2023-01-20T21:41:34.239Z,17.48
2023-01-20T21:44:28.249Z,16.42
2023-01-20T21:47:13.640Z,14.55
2023-01-20T21:50:17.764Z,15.10
2023-01-20T21:53:03.661Z,16.75
2023-01-20T21:55:49.320Z,16.23
2023-01-20T21:58:34.586Z,15.40
2023-01-20T22:01:19.912Z,17.50
2023-01-20T22:04:05.381Z,15.98
2023-01-20T22:06:50.767Z,16.20
2023-01-20T22:09:36.308Z,17.45
2023-01-20T22:12:21.577Z,16.95
2023-01-20T22:15:07.594Z,16.48
2023-01-20T22:17:53.011Z,15.05
2023-01-20T22:20:38.664Z,13.67
2023-01-20T22:23:24.384Z,14.20
2023-01-20T22:26:10.282Z,13.35
2023-01-20T22:28:55.937Z,22.43
2023-01-20T22:31:41.153Z,22.37
2023-01-20T22:34:26.812Z,19.27
2023-01-20T22:37:12.397Z,19.15
2023-01-20T22:39:57.846Z,14.50
2023-01-20T22:42:43.547Z,13.38
2023-01-20T22:45:28.870Z,13.40
2023-01-20T22:48:14.304Z,13.32
2023-01-20T22:51:11.284Z,12.13
2023-01-20T22:53:59.284Z,13.93
2023-01-20T22:56:44.724Z,14.73
2023-01-20T22:59:29.998Z,15.05
2023-01-20T23:02:15.577Z,16.10
2023-01-20T23:05:00.897Z,15.63
2023-01-20T23:07:46.569Z,14.05
2023-01-20T23:10:46.907Z,14.97
2023-01-20T23:13:32.918Z,13.53
2023-01-20T23:16:22.204Z,13.20
2023-01-20T23:19:07.973Z,12.10
2023-01-20T23:21:53.584Z,17.25
2023-01-20T23:24:39.305Z,20.83
2023-01-20T23:27:24.615Z,22.88
2023-01-20T23:30:12.733Z,20.17
2023-01-20T23:32:58.064Z,17.50
2023-01-20T23:35:43.639Z,22.83
2023-01-20T23:38:28.941Z,17.63
2023-01-20T23:41:15.339Z,16.80
2023-01-20T23:44:00.742Z,16.45
2023-01-20T23:46:46.095Z,12.70
2023-01-20T23:49:31.652Z,23.48
2023-01-20T23:52:16.917Z,14.93
2023-01-20T23:55:02.324Z,15.27
2023-01-20T23:57:47.805Z,13.17
